<?xml version="1.0" encoding="UTF-8" standalone="no" ?>
<gpx xmlns="http://www.topografix.com/GPX/1/1" xmlns:xsi="http://www.w3.org/2001/XMLSchema-instance" xsi:schemaLocation="http://www.topografix.com/GPX/1/1 http://www.topografix.com/GPX/1/1/gpx.xsd" version="1.1" creator="VisuGPX - https://www.visugpx.com">
  <metadata>
    <name>Route 04.06.2020 -Hohneck Obernai</name>
  </metadata>
  <trk>
    <name><![CDATA[11420836-Hohneck Obernai]]></name>
    <extensions>
      <line xmlns="http://www.topografix.com/GPX/gpx_style/0/2">
        <color>0000FF</color>
        <width>4</width>
      </line>
    </extensions>
    <trkseg>
      <trkpt lat="48.04312" lon="7.00294">
        <ele>1194</ele>
        <time>2022-06-09T15:02:26Z</time>
      </trkpt>
      <trkpt lat="48.04243" lon="7.00321">
        <ele>1207</ele>
        <time>2022-06-09T15:02:39Z</time>
      </trkpt>
      <trkpt lat="48.04101" lon="7.00539">
        <ele>1237</ele>
        <time>2022-06-09T15:03:15Z</time>
      </trkpt>
      <trkpt lat="48.04025" lon="7.00632">
        <ele>1235</ele>
        <time>2022-06-09T15:03:32Z</time>
      </trkpt>
      <trkpt lat="48.03952" lon="7.00778">
        <ele>1240</ele>
        <time>2022-06-09T15:03:54Z</time>
      </trkpt>
      <trkpt lat="48.03822" lon="7.00804">
        <ele>1238</ele>
        <time>2022-06-09T15:04:17Z</time>
      </trkpt>
      <trkpt lat="48.03707" lon="7.00787">
        <ele>1239</ele>
        <time>2022-06-09T15:04:38Z</time>
      </trkpt>
      <trkpt lat="48.03605" lon="7.00787">
        <ele>1244</ele>
        <time>2022-06-09T15:04:56Z</time>
      </trkpt>
      <trkpt lat="48.03567" lon="7.00767">
        <ele>1246</ele>
        <time>2022-06-09T15:05:03Z</time>
      </trkpt>
      <trkpt lat="48.03527" lon="7.007">
        <ele>1247</ele>
        <time>2022-06-09T15:05:14Z</time>
      </trkpt>
      <trkpt lat="48.03444" lon="7.00545">
        <ele>1253</ele>
        <time>2022-06-09T15:05:38Z</time>
      </trkpt>
      <trkpt lat="48.03414" lon="7.00406">
        <ele>1252</ele>
        <time>2022-06-09T15:05:55Z</time>
      </trkpt>
      <trkpt lat="48.03356" lon="7.00261">
        <ele>1255</ele>
        <time>2022-06-09T15:06:15Z</time>
      </trkpt>
      <trkpt lat="48.03283" lon="7.00144">
        <ele>1257</ele>
        <time>2022-06-09T15:06:34Z</time>
      </trkpt>
      <trkpt lat="48.03244" lon="7.0013">
        <ele>1257</ele>
        <time>2022-06-09T15:06:41Z</time>
      </trkpt>
      <trkpt lat="48.03178" lon="7.00199">
        <ele>1258</ele>
        <time>2022-06-09T15:06:56Z</time>
      </trkpt>
      <trkpt lat="48.03136" lon="7.00289">
        <ele>1259</ele>
        <time>2022-06-09T15:07:09Z</time>
      </trkpt>
      <trkpt lat="48.03053" lon="7.00382">
        <ele>1254</ele>
        <time>2022-06-09T15:07:27Z</time>
      </trkpt>
      <trkpt lat="48.03012" lon="7.00456">
        <ele>1254</ele>
        <time>2022-06-09T15:07:39Z</time>
      </trkpt>
      <trkpt lat="48.02975" lon="7.00468">
        <ele>1254</ele>
        <time>2022-06-09T15:07:45Z</time>
      </trkpt>
      <trkpt lat="48.02944" lon="7.00442">
        <ele>1251</ele>
        <time>2022-06-09T15:07:52Z</time>
      </trkpt>
      <trkpt lat="48.02875" lon="7.00363">
        <ele>1253</ele>
        <time>2022-06-09T15:08:07Z</time>
      </trkpt>
      <trkpt lat="48.02848" lon="7.00285">
        <ele>1254</ele>
        <time>2022-06-09T15:08:17Z</time>
      </trkpt>
      <trkpt lat="48.02814" lon="7.00039">
        <ele>1246.1</ele>
        <time>2022-06-09T15:08:48Z</time>
      </trkpt>
      <trkpt lat="48.02763" lon="6.99862">
        <ele>1239</ele>
        <time>2022-06-09T15:09:10Z</time>
      </trkpt>
      <trkpt lat="48.02689" lon="6.99709">
        <ele>1237</ele>
        <time>2022-06-09T15:09:33Z</time>
      </trkpt>
      <trkpt lat="48.02969" lon="7.00112">
        <ele>1208.8</ele>
      </trkpt>
      <trkpt lat="48.03026" lon="7.00029">
        <ele>1201.7</ele>
      </trkpt>
      <trkpt lat="48.02966" lon="6.99799">
        <ele>1185.9</ele>
      </trkpt>
      <trkpt lat="48.02964" lon="6.9955">
        <ele>1167.6</ele>
      </trkpt>
      <trkpt lat="48.02976" lon="6.99402">
        <ele>1155.7</ele>
      </trkpt>
      <trkpt lat="48.0292" lon="6.99529">
        <ele>1153.9</ele>
      </trkpt>
      <trkpt lat="48.0289" lon="6.9937">
        <ele>1147</ele>
      </trkpt>
      <trkpt lat="48.02842" lon="6.99331">
        <ele>1148.2</ele>
      </trkpt>
      <trkpt lat="48.02825" lon="6.99269">
        <ele>1148.3</ele>
      </trkpt>
      <trkpt lat="48.02689" lon="6.99127">
        <ele>1151.5</ele>
      </trkpt>
      <trkpt lat="48.02679" lon="6.9905">
        <ele>1142.8</ele>
      </trkpt>
      <trkpt lat="48.02716" lon="6.99018">
        <ele>1143.1</ele>
      </trkpt>
      <trkpt lat="48.02743" lon="6.98954">
        <ele>1141.6</ele>
      </trkpt>
      <trkpt lat="48.02706" lon="6.98765">
        <ele>1126.4</ele>
      </trkpt>
      <trkpt lat="48.02445" lon="6.98563">
        <ele>1101.1</ele>
      </trkpt>
      <trkpt lat="48.02366" lon="6.98501">
        <ele>1089.9</ele>
      </trkpt>
      <trkpt lat="48.02001" lon="6.98052">
        <ele>1034.5</ele>
      </trkpt>
      <trkpt lat="48.02009" lon="6.97868">
        <ele>1024.8</ele>
      </trkpt>
      <trkpt lat="48.01988" lon="6.97752">
        <ele>1013.7</ele>
      </trkpt>
      <trkpt lat="48.02" lon="6.97666">
        <ele>1008</ele>
      </trkpt>
      <trkpt lat="48.01971" lon="6.97559">
        <ele>999</ele>
      </trkpt>
      <trkpt lat="48.01981" lon="6.97434">
        <ele>989.8</ele>
      </trkpt>
      <trkpt lat="48.01977" lon="6.97271">
        <ele>977.1</ele>
      </trkpt>
      <trkpt lat="48.01993" lon="6.96982">
        <ele>952.1</ele>
      </trkpt>
      <trkpt lat="48.02043" lon="6.96765">
        <ele>933.6</ele>
      </trkpt>
      <trkpt lat="48.02109" lon="6.96671">
        <ele>923</ele>
      </trkpt>
      <trkpt lat="48.02198" lon="6.96632">
        <ele>911.1</ele>
      </trkpt>
      <trkpt lat="48.0239" lon="6.9651">
        <ele>882.4</ele>
      </trkpt>
      <trkpt lat="48.02453" lon="6.96394">
        <ele>870.7</ele>
      </trkpt>
      <trkpt lat="48.02459" lon="6.96319">
        <ele>863.5</ele>
      </trkpt>
      <trkpt lat="48.02508" lon="6.96229">
        <ele>858.4</ele>
      </trkpt>
      <trkpt lat="48.02492" lon="6.95943">
        <ele>836.2</ele>
      </trkpt>
      <trkpt lat="48.02608" lon="6.95983">
        <ele>849</ele>
        <time>2022-06-09T17:06:15Z</time>
      </trkpt>
      <trkpt lat="48.02764" lon="6.96091">
        <ele>865</ele>
        <time>2022-06-09T17:06:46Z</time>
      </trkpt>
      <trkpt lat="48.02871" lon="6.96159">
        <ele>875</ele>
        <time>2022-06-09T17:07:06Z</time>
      </trkpt>
      <trkpt lat="48.03098" lon="6.9623">
        <ele>888</ele>
        <time>2022-06-09T17:07:47Z</time>
      </trkpt>
      <trkpt lat="48.03306" lon="6.9637">
        <ele>891</ele>
        <time>2022-06-09T17:08:28Z</time>
      </trkpt>
      <trkpt lat="48.0351" lon="6.96586">
        <ele>892</ele>
        <time>2022-06-09T17:09:13Z</time>
      </trkpt>
      <trkpt lat="48.03649" lon="6.96871">
        <ele>897</ele>
        <time>2022-06-09T17:09:54Z</time>
      </trkpt>
      <trkpt lat="48.03662" lon="6.96922">
        <ele>897</ele>
        <time>2022-06-09T17:10:01Z</time>
      </trkpt>
      <trkpt lat="48.03721" lon="6.97023">
        <ele>905</ele>
        <time>2022-06-09T17:10:17Z</time>
      </trkpt>
      <trkpt lat="48.0377" lon="6.97078">
        <ele>909</ele>
        <time>2022-06-09T17:10:28Z</time>
      </trkpt>
      <trkpt lat="48.03846" lon="6.97195">
        <ele>916</ele>
        <time>2022-06-09T17:10:47Z</time>
      </trkpt>
      <trkpt lat="48.03896" lon="6.97309">
        <ele>919</ele>
        <time>2022-06-09T17:11:03Z</time>
      </trkpt>
      <trkpt lat="48.03981" lon="6.97407">
        <ele>927</ele>
        <time>2022-06-09T17:11:23Z</time>
      </trkpt>
      <trkpt lat="48.04044" lon="6.97498">
        <ele>937</ele>
        <time>2022-06-09T17:11:38Z</time>
      </trkpt>
      <trkpt lat="48.04323" lon="6.97617">
        <ele>957</ele>
        <time>2022-06-09T17:12:30Z</time>
      </trkpt>
      <trkpt lat="48.04582" lon="6.97597">
        <ele>954</ele>
        <time>2022-06-09T17:13:16Z</time>
      </trkpt>
      <trkpt lat="48.04712" lon="6.97564">
        <ele>955</ele>
        <time>2022-06-09T17:13:39Z</time>
      </trkpt>
      <trkpt lat="48.04788" lon="6.97602">
        <ele>962</ele>
        <time>2022-06-09T17:13:54Z</time>
      </trkpt>
      <trkpt lat="48.04852" lon="6.97703">
        <ele>957</ele>
        <time>2022-06-09T17:14:10Z</time>
      </trkpt>
      <trkpt lat="48.04983" lon="6.98066">
        <ele>945</ele>
        <time>2022-06-09T17:14:59Z</time>
      </trkpt>
      <trkpt lat="48.05028" lon="6.98295">
        <ele>929</ele>
        <time>2022-06-09T17:15:28Z</time>
      </trkpt>
      <trkpt lat="48.04992" lon="6.98718">
        <ele>921</ele>
        <time>2022-06-09T17:16:18Z</time>
      </trkpt>
      <trkpt lat="48.05012" lon="6.98712">
        <ele>913</ele>
        <time>2022-06-09T17:16:22Z</time>
      </trkpt>
      <trkpt lat="48.05126" lon="6.98027">
        <ele>876</ele>
        <time>2022-06-09T17:17:46Z</time>
      </trkpt>
      <trkpt lat="48.05164" lon="6.97913">
        <ele>872</ele>
        <time>2022-06-09T17:18:01Z</time>
      </trkpt>
      <trkpt lat="48.05185" lon="6.97887">
        <ele>876</ele>
        <time>2022-06-09T17:18:06Z</time>
      </trkpt>
      <trkpt lat="48.05202" lon="6.97935">
        <ele>867</ele>
        <time>2022-06-09T17:18:12Z</time>
      </trkpt>
      <trkpt lat="48.05182" lon="6.98016">
        <ele>861</ele>
        <time>2022-06-09T17:18:23Z</time>
      </trkpt>
      <trkpt lat="48.05184" lon="6.98312">
        <ele>852</ele>
        <time>2022-06-09T17:18:58Z</time>
      </trkpt>
      <trkpt lat="48.05156" lon="6.98525">
        <ele>850</ele>
        <time>2022-06-09T17:19:24Z</time>
      </trkpt>
      <trkpt lat="48.05195" lon="6.98818">
        <ele>831</ele>
        <time>2022-06-09T17:19:59Z</time>
      </trkpt>
      <trkpt lat="48.05278" lon="6.98904">
        <ele>822</ele>
        <time>2022-06-09T17:20:17Z</time>
      </trkpt>
      <trkpt lat="48.05378" lon="6.98898">
        <ele>818</ele>
        <time>2022-06-09T17:20:35Z</time>
      </trkpt>
      <trkpt lat="48.05495" lon="6.98768">
        <ele>798</ele>
        <time>2022-06-09T17:21:01Z</time>
      </trkpt>
      <trkpt lat="48.05593" lon="6.98764">
        <ele>801</ele>
        <time>2022-06-09T17:21:18Z</time>
      </trkpt>
      <trkpt lat="48.05894" lon="6.98453">
        <ele>799</ele>
        <time>2022-06-09T17:22:23Z</time>
      </trkpt>
      <trkpt lat="48.05914" lon="6.98356">
        <ele>797</ele>
        <time>2022-06-09T17:22:36Z</time>
      </trkpt>
      <trkpt lat="48.05875" lon="6.98283">
        <ele>793</ele>
        <time>2022-06-09T17:22:47Z</time>
      </trkpt>
      <trkpt lat="48.05885" lon="6.98248">
        <ele>793</ele>
        <time>2022-06-09T17:22:51Z</time>
      </trkpt>
      <trkpt lat="48.05947" lon="6.98207">
        <ele>796</ele>
        <time>2022-06-09T17:23:03Z</time>
      </trkpt>
      <trkpt lat="48.05999" lon="6.98098">
        <ele>783</ele>
        <time>2022-06-09T17:23:19Z</time>
      </trkpt>
      <trkpt lat="48.06064" lon="6.97999">
        <ele>782</ele>
        <time>2022-06-09T17:23:36Z</time>
      </trkpt>
      <trkpt lat="48.06104" lon="6.97837">
        <ele>774</ele>
        <time>2022-06-09T17:23:56Z</time>
      </trkpt>
      <trkpt lat="48.06113" lon="6.97675">
        <ele>771</ele>
        <time>2022-06-09T17:24:16Z</time>
      </trkpt>
      <trkpt lat="48.0615" lon="6.97514">
        <ele>775</ele>
        <time>2022-06-09T17:24:36Z</time>
      </trkpt>
      <trkpt lat="48.06167" lon="6.97159">
        <ele>764</ele>
        <time>2022-06-09T17:25:18Z</time>
      </trkpt>
      <trkpt lat="48.06281" lon="6.96825">
        <ele>760</ele>
        <time>2022-06-09T17:26:03Z</time>
      </trkpt>
      <trkpt lat="48.06296" lon="6.96708">
        <ele>757</ele>
        <time>2022-06-09T17:26:17Z</time>
      </trkpt>
      <trkpt lat="48.0629" lon="6.96538">
        <ele>751</ele>
        <time>2022-06-09T17:26:37Z</time>
      </trkpt>
      <trkpt lat="48.06207" lon="6.96367">
        <ele>742</ele>
        <time>2022-06-09T17:27:02Z</time>
      </trkpt>
      <trkpt lat="48.06223" lon="6.96219">
        <ele>743</ele>
        <time>2022-06-09T17:27:20Z</time>
      </trkpt>
      <trkpt lat="48.06354" lon="6.95943">
        <ele>738</ele>
        <time>2022-06-09T17:28:00Z</time>
      </trkpt>
      <trkpt lat="48.06325" lon="6.95492">
        <ele>753</ele>
        <time>2022-06-09T17:28:54Z</time>
      </trkpt>
      <trkpt lat="48.0663" lon="6.94974">
        <ele>753</ele>
        <time>2022-06-09T17:30:16Z</time>
      </trkpt>
      <trkpt lat="48.0684" lon="6.94767">
        <ele>749</ele>
        <time>2022-06-09T17:31:01Z</time>
      </trkpt>
      <trkpt lat="48.0707" lon="6.94553">
        <ele>760</ele>
        <time>2022-06-09T17:31:49Z</time>
      </trkpt>
      <trkpt lat="48.07503" lon="6.94341">
        <ele>750</ele>
        <time>2022-06-09T17:33:10Z</time>
      </trkpt>
      <trkpt lat="48.0778" lon="6.94088">
        <ele>752</ele>
        <time>2022-06-09T17:34:08Z</time>
      </trkpt>
      <trkpt lat="48.07834" lon="6.94308">
        <ele>737</ele>
        <time>2022-06-09T17:34:36Z</time>
      </trkpt>
      <trkpt lat="48.07933" lon="6.94469">
        <ele>738</ele>
        <time>2022-06-09T17:35:02Z</time>
      </trkpt>
      <trkpt lat="48.07932" lon="6.94677">
        <ele>737</ele>
        <time>2022-06-09T17:35:27Z</time>
      </trkpt>
      <trkpt lat="48.0795" lon="6.94744">
        <ele>738</ele>
        <time>2022-06-09T17:35:35Z</time>
      </trkpt>
      <trkpt lat="48.08009" lon="6.94812">
        <ele>751</ele>
        <time>2022-06-09T17:35:48Z</time>
      </trkpt>
      <trkpt lat="48.0803" lon="6.94789">
        <ele>749</ele>
        <time>2022-06-09T17:35:53Z</time>
      </trkpt>
      <trkpt lat="48.0823" lon="6.94712">
        <ele>746</ele>
        <time>2022-06-09T17:36:30Z</time>
      </trkpt>
      <trkpt lat="48.08291" lon="6.94725">
        <ele>747</ele>
        <time>2022-06-09T17:36:41Z</time>
      </trkpt>
      <trkpt lat="48.08306" lon="6.94704">
        <ele>746</ele>
        <time>2022-06-09T17:36:44Z</time>
      </trkpt>
      <trkpt lat="48.08318" lon="6.946">
        <ele>748</ele>
        <time>2022-06-09T17:36:57Z</time>
      </trkpt>
      <trkpt lat="48.0835" lon="6.94622">
        <ele>752</ele>
        <time>2022-06-09T17:37:03Z</time>
      </trkpt>
      <trkpt lat="48.08372" lon="6.94677">
        <ele>753</ele>
        <time>2022-06-09T17:37:11Z</time>
      </trkpt>
      <trkpt lat="48.08476" lon="6.94692">
        <ele>764</ele>
        <time>2022-06-09T17:37:29Z</time>
      </trkpt>
      <trkpt lat="48.08543" lon="6.9471">
        <ele>765</ele>
        <time>2022-06-09T17:37:42Z</time>
      </trkpt>
      <trkpt lat="48.08596" lon="6.9487">
        <ele>771</ele>
        <time>2022-06-09T17:38:03Z</time>
      </trkpt>
      <trkpt lat="48.08611" lon="6.95137">
        <ele>793</ele>
        <time>2022-06-09T17:38:35Z</time>
      </trkpt>
      <trkpt lat="48.08677" lon="6.95445">
        <ele>816</ele>
        <time>2022-06-09T17:39:13Z</time>
      </trkpt>
      <trkpt lat="48.08687" lon="6.95421">
        <ele>820</ele>
        <time>2022-06-09T17:39:16Z</time>
      </trkpt>
      <trkpt lat="48.08695" lon="6.95055">
        <ele>816</ele>
        <time>2022-06-09T17:40:00Z</time>
      </trkpt>
      <trkpt lat="48.08731" lon="6.94908">
        <ele>812</ele>
        <time>2022-06-09T17:40:19Z</time>
      </trkpt>
      <trkpt lat="48.08909" lon="6.9488">
        <ele>818</ele>
        <time>2022-06-09T17:40:50Z</time>
      </trkpt>
      <trkpt lat="48.08995" lon="6.94859">
        <ele>812</ele>
        <time>2022-06-09T17:41:06Z</time>
      </trkpt>
      <trkpt lat="48.09109" lon="6.95036">
        <ele>818</ele>
        <time>2022-06-09T17:41:35Z</time>
      </trkpt>
      <trkpt lat="48.09347" lon="6.95393">
        <ele>828</ele>
        <time>2022-06-09T17:42:35Z</time>
      </trkpt>
      <trkpt lat="48.09384" lon="6.95638">
        <ele>837</ele>
        <time>2022-06-09T17:43:05Z</time>
      </trkpt>
      <trkpt lat="48.09438" lon="6.95666">
        <ele>827</ele>
        <time>2022-06-09T17:43:15Z</time>
      </trkpt>
      <trkpt lat="48.09578" lon="6.95577">
        <ele>814</ele>
        <time>2022-06-09T17:43:42Z</time>
      </trkpt>
      <trkpt lat="48.09587" lon="6.95549">
        <ele>816</ele>
        <time>2022-06-09T17:43:46Z</time>
      </trkpt>
      <trkpt lat="48.09523" lon="6.95736">
        <ele>812</ele>
        <time>2022-06-09T17:44:11Z</time>
      </trkpt>
      <trkpt lat="48.09608" lon="6.96182">
        <ele>827</ele>
        <time>2022-06-09T17:45:06Z</time>
      </trkpt>
      <trkpt lat="48.09651" lon="6.96367">
        <ele>827</ele>
        <time>2022-06-09T17:45:29Z</time>
      </trkpt>
      <trkpt lat="48.09693" lon="6.96516">
        <ele>829</ele>
        <time>2022-06-09T17:45:48Z</time>
      </trkpt>
      <trkpt lat="48.09675" lon="6.96853">
        <ele>813</ele>
        <time>2022-06-09T17:46:29Z</time>
      </trkpt>
      <trkpt lat="48.0978" lon="6.97041">
        <ele>800</ele>
        <time>2022-06-09T17:46:58Z</time>
      </trkpt>
      <trkpt lat="48.0973" lon="6.97281">
        <ele>790</ele>
        <time>2022-06-09T17:47:28Z</time>
      </trkpt>
      <trkpt lat="48.09941" lon="6.97445">
        <ele>770</ele>
        <time>2022-06-09T17:48:10Z</time>
      </trkpt>
      <trkpt lat="48.10074" lon="6.9753">
        <ele>763</ele>
        <time>2022-06-09T17:48:36Z</time>
      </trkpt>
      <trkpt lat="48.10498" lon="6.97378">
        <ele>741</ele>
        <time>2022-06-09T17:49:53Z</time>
      </trkpt>
      <trkpt lat="48.11201" lon="6.96628">
        <ele>680</ele>
        <time>2022-06-09T17:52:27Z</time>
      </trkpt>
      <trkpt lat="48.11322" lon="6.9651">
        <ele>673</ele>
        <time>2022-06-09T17:52:53Z</time>
      </trkpt>
      <trkpt lat="48.11436" lon="6.96073">
        <ele>656</ele>
        <time>2022-06-09T17:53:48Z</time>
      </trkpt>
      <trkpt lat="48.11665" lon="6.95679">
        <ele>638</ele>
        <time>2022-06-09T17:54:50Z</time>
      </trkpt>
      <trkpt lat="48.12262" lon="6.9531">
        <ele>595</ele>
        <time>2022-06-09T17:56:45Z</time>
      </trkpt>
      <trkpt lat="48.12925" lon="6.95583">
        <ele>575</ele>
        <time>2022-06-09T17:58:48Z</time>
      </trkpt>
      <trkpt lat="48.13014" lon="6.95717">
        <ele>583</ele>
        <time>2022-06-09T17:59:10Z</time>
      </trkpt>
      <trkpt lat="48.13161" lon="6.95641">
        <ele>575</ele>
        <time>2022-06-09T17:59:38Z</time>
      </trkpt>
      <trkpt lat="48.13425" lon="6.95739">
        <ele>566</ele>
        <time>2022-06-09T18:00:26Z</time>
      </trkpt>
      <trkpt lat="48.13476" lon="6.95764">
        <ele>564</ele>
        <time>2022-06-09T18:00:36Z</time>
      </trkpt>
      <trkpt lat="48.13527" lon="6.95933">
        <ele>559</ele>
        <time>2022-06-09T18:00:58Z</time>
      </trkpt>
      <trkpt lat="48.1384" lon="6.96594">
        <ele>548</ele>
        <time>2022-06-09T18:02:34Z</time>
      </trkpt>
      <trkpt lat="48.14018" lon="6.9689">
        <ele>544</ele>
        <time>2022-06-09T18:03:21Z</time>
      </trkpt>
      <trkpt lat="48.14076" lon="6.97077">
        <ele>544</ele>
        <time>2022-06-09T18:03:46Z</time>
      </trkpt>
      <trkpt lat="48.14141" lon="6.97171">
        <ele>542</ele>
        <time>2022-06-09T18:04:02Z</time>
      </trkpt>
      <trkpt lat="48.14199" lon="6.97319">
        <ele>539</ele>
        <time>2022-06-09T18:04:22Z</time>
      </trkpt>
      <trkpt lat="48.14379" lon="6.9755">
        <ele>533</ele>
        <time>2022-06-09T18:05:04Z</time>
      </trkpt>
      <trkpt lat="48.1443" lon="6.97591">
        <ele>532</ele>
        <time>2022-06-09T18:05:15Z</time>
      </trkpt>
      <trkpt lat="48.14562" lon="6.97868">
        <ele>532</ele>
        <time>2022-06-09T18:05:55Z</time>
      </trkpt>
      <trkpt lat="48.14596" lon="6.9796">
        <ele>530</ele>
        <time>2022-06-09T18:06:07Z</time>
      </trkpt>
      <trkpt lat="48.14668" lon="6.98003">
        <ele>527</ele>
        <time>2022-06-09T18:06:21Z</time>
      </trkpt>
      <trkpt lat="48.14746" lon="6.98115">
        <ele>526</ele>
        <time>2022-06-09T18:06:41Z</time>
      </trkpt>
      <trkpt lat="48.14831" lon="6.98131">
        <ele>525</ele>
        <time>2022-06-09T18:06:56Z</time>
      </trkpt>
      <trkpt lat="48.14872" lon="6.98007">
        <ele>523</ele>
        <time>2022-06-09T18:07:12Z</time>
      </trkpt>
      <trkpt lat="48.14899" lon="6.98007">
        <ele>522</ele>
        <time>2022-06-09T18:07:17Z</time>
      </trkpt>
      <trkpt lat="48.14947" lon="6.97963">
        <ele>524</ele>
        <time>2022-06-09T18:07:27Z</time>
      </trkpt>
      <trkpt lat="48.15014" lon="6.97945">
        <ele>527</ele>
        <time>2022-06-09T18:07:39Z</time>
      </trkpt>
      <trkpt lat="48.15049" lon="6.97955">
        <ele>525</ele>
        <time>2022-06-09T18:07:45Z</time>
      </trkpt>
      <trkpt lat="48.15108" lon="6.97922">
        <ele>526</ele>
        <time>2022-06-09T18:07:57Z</time>
      </trkpt>
      <trkpt lat="48.15123" lon="6.97856">
        <ele>538</ele>
        <time>2022-06-09T18:08:05Z</time>
      </trkpt>
      <trkpt lat="48.15189" lon="6.97856">
        <ele>543</ele>
        <time>2022-06-09T18:08:17Z</time>
      </trkpt>
      <trkpt lat="48.15284" lon="6.98027">
        <ele>539</ele>
        <time>2022-06-09T18:08:43Z</time>
      </trkpt>
      <trkpt lat="48.15355" lon="6.98103">
        <ele>544</ele>
        <time>2022-06-09T18:08:59Z</time>
      </trkpt>
      <trkpt lat="48.15465" lon="6.98139">
        <ele>540</ele>
        <time>2022-06-09T18:09:19Z</time>
      </trkpt>
      <trkpt lat="48.15508" lon="6.98021">
        <ele>537</ele>
        <time>2022-06-09T18:09:35Z</time>
      </trkpt>
      <trkpt lat="48.15551" lon="6.97997">
        <ele>533</ele>
        <time>2022-06-09T18:09:43Z</time>
      </trkpt>
      <trkpt lat="48.15595" lon="6.98032">
        <ele>524</ele>
        <time>2022-06-09T18:09:52Z</time>
      </trkpt>
      <trkpt lat="48.15613" lon="6.97965">
        <ele>532</ele>
        <time>2022-06-09T18:10:00Z</time>
      </trkpt>
      <trkpt lat="48.15588" lon="6.97911">
        <ele>542</ele>
        <time>2022-06-09T18:10:08Z</time>
      </trkpt>
      <trkpt lat="48.15618" lon="6.97879">
        <ele>546</ele>
        <time>2022-06-09T18:10:15Z</time>
      </trkpt>
      <trkpt lat="48.15711" lon="6.9788">
        <ele>543</ele>
        <time>2022-06-09T18:10:31Z</time>
      </trkpt>
      <trkpt lat="48.15774" lon="6.97892">
        <ele>538</ele>
        <time>2022-06-09T18:10:42Z</time>
      </trkpt>
      <trkpt lat="48.1586" lon="6.97882">
        <ele>538</ele>
        <time>2022-06-09T18:10:58Z</time>
      </trkpt>
      <trkpt lat="48.1595" lon="6.97814">
        <ele>538</ele>
        <time>2022-06-09T18:11:16Z</time>
      </trkpt>
      <trkpt lat="48.15965" lon="6.9777">
        <ele>543</ele>
        <time>2022-06-09T18:11:22Z</time>
      </trkpt>
      <trkpt lat="48.16028" lon="6.97744">
        <ele>545</ele>
        <time>2022-06-09T18:11:33Z</time>
      </trkpt>
      <trkpt lat="48.16077" lon="6.97765">
        <ele>543</ele>
        <time>2022-06-09T18:11:42Z</time>
      </trkpt>
      <trkpt lat="48.16161" lon="6.97764">
        <ele>544</ele>
        <time>2022-06-09T18:11:57Z</time>
      </trkpt>
      <trkpt lat="48.16228" lon="6.9781">
        <ele>535</ele>
        <time>2022-06-09T18:12:10Z</time>
      </trkpt>
      <trkpt lat="48.16266" lon="6.97845">
        <ele>527</ele>
        <time>2022-06-09T18:12:18Z</time>
      </trkpt>
      <trkpt lat="48.16372" lon="6.97846">
        <ele>523</ele>
        <time>2022-06-09T18:12:37Z</time>
      </trkpt>
      <trkpt lat="48.16536" lon="6.97823">
        <ele>513</ele>
        <time>2022-06-09T18:13:06Z</time>
      </trkpt>
      <trkpt lat="48.16576" lon="6.97865">
        <ele>511</ele>
        <time>2022-06-09T18:13:15Z</time>
      </trkpt>
      <trkpt lat="48.166" lon="6.97852">
        <ele>510</ele>
        <time>2022-06-09T18:13:20Z</time>
      </trkpt>
      <trkpt lat="48.16617" lon="6.97815">
        <ele>511</ele>
        <time>2022-06-09T18:13:25Z</time>
      </trkpt>
      <trkpt lat="48.1676" lon="6.9777">
        <ele>508</ele>
        <time>2022-06-09T18:13:51Z</time>
      </trkpt>
      <trkpt lat="48.16877" lon="6.97782">
        <ele>503</ele>
        <time>2022-06-09T18:14:12Z</time>
      </trkpt>
      <trkpt lat="48.17074" lon="6.97695">
        <ele>501</ele>
        <time>2022-06-09T18:14:48Z</time>
      </trkpt>
      <trkpt lat="48.17321" lon="6.97636">
        <ele>488</ele>
        <time>2022-06-09T18:15:33Z</time>
      </trkpt>
      <trkpt lat="48.1744" lon="6.97574">
        <ele>484</ele>
        <time>2022-06-09T18:15:55Z</time>
      </trkpt>
      <trkpt lat="48.17512" lon="6.97627">
        <ele>484</ele>
        <time>2022-06-09T18:16:10Z</time>
      </trkpt>
      <trkpt lat="48.17573" lon="6.97778">
        <ele>488</ele>
        <time>2022-06-09T18:16:31Z</time>
      </trkpt>
      <trkpt lat="48.17769" lon="6.97586">
        <ele>489</ele>
        <time>2022-06-09T18:17:12Z</time>
      </trkpt>
      <trkpt lat="48.17822" lon="6.97444">
        <ele>486</ele>
        <time>2022-06-09T18:17:31Z</time>
      </trkpt>
      <trkpt lat="48.18026" lon="6.97342">
        <ele>483</ele>
        <time>2022-06-09T18:18:10Z</time>
      </trkpt>
      <trkpt lat="48.18237" lon="6.97352">
        <ele>472</ele>
        <time>2022-06-09T18:18:47Z</time>
      </trkpt>
      <trkpt lat="48.18286" lon="6.96558">
        <ele>468</ele>
        <time>2022-06-09T18:20:22Z</time>
      </trkpt>
      <trkpt lat="48.18329" lon="6.96278">
        <ele>466</ele>
        <time>2022-06-09T18:20:56Z</time>
      </trkpt>
      <trkpt lat="48.18683" lon="6.95336">
        <ele>454</ele>
        <time>2022-06-09T18:23:04Z</time>
      </trkpt>
      <trkpt lat="48.19687" lon="6.94688">
        <ele>441</ele>
        <time>2022-06-09T18:26:19Z</time>
      </trkpt>
      <trkpt lat="48.2056" lon="6.94134">
        <ele>429</ele>
        <time>2022-06-09T18:29:07Z</time>
      </trkpt>
      <trkpt lat="48.21063" lon="6.93997">
        <ele>422</ele>
        <time>2022-06-09T18:30:38Z</time>
      </trkpt>
      <trkpt lat="48.21281" lon="6.94005">
        <ele>420</ele>
        <time>2022-06-09T18:31:17Z</time>
      </trkpt>
      <trkpt lat="48.21562" lon="6.94089">
        <ele>416</ele>
        <time>2022-06-09T18:32:08Z</time>
      </trkpt>
      <trkpt lat="48.21662" lon="6.94147">
        <ele>416</ele>
        <time>2022-06-09T18:32:27Z</time>
      </trkpt>
      <trkpt lat="48.21534" lon="6.94472">
        <ele>418</ele>
        <time>2022-06-09T18:33:12Z</time>
      </trkpt>
      <trkpt lat="48.21503" lon="6.94613">
        <ele>416</ele>
        <time>2022-06-09T18:33:30Z</time>
      </trkpt>
      <trkpt lat="48.2151" lon="6.94761">
        <ele>415</ele>
        <time>2022-06-09T18:33:47Z</time>
      </trkpt>
      <trkpt lat="48.2159" lon="6.9497">
        <ele>415</ele>
        <time>2022-06-09T18:34:16Z</time>
      </trkpt>
      <trkpt lat="48.22063" lon="6.95181">
        <ele>408</ele>
        <time>2022-06-09T18:35:44Z</time>
      </trkpt>
      <trkpt lat="48.22159" lon="6.95207">
        <ele>407</ele>
        <time>2022-06-09T18:36:01Z</time>
      </trkpt>
      <trkpt lat="48.22203" lon="6.95304">
        <ele>408</ele>
        <time>2022-06-09T18:36:15Z</time>
      </trkpt>
      <trkpt lat="48.22321" lon="6.95427">
        <ele>405</ele>
        <time>2022-06-09T18:36:40Z</time>
      </trkpt>
      <trkpt lat="48.22381" lon="6.95469">
        <ele>403</ele>
        <time>2022-06-09T18:36:52Z</time>
      </trkpt>
      <trkpt lat="48.22473" lon="6.95571">
        <ele>402</ele>
        <time>2022-06-09T18:37:12Z</time>
      </trkpt>
      <trkpt lat="48.22702" lon="6.95701">
        <ele>400</ele>
        <time>2022-06-09T18:37:56Z</time>
      </trkpt>
      <trkpt lat="48.22795" lon="6.95882">
        <ele>398</ele>
        <time>2022-06-09T18:38:23Z</time>
      </trkpt>
      <trkpt lat="48.22867" lon="6.95918">
        <ele>397</ele>
        <time>2022-06-09T18:38:37Z</time>
      </trkpt>
      <trkpt lat="48.23012" lon="6.9603">
        <ele>397</ele>
        <time>2022-06-09T18:39:06Z</time>
      </trkpt>
      <trkpt lat="48.23214" lon="6.96136">
        <ele>395</ele>
        <time>2022-06-09T18:39:44Z</time>
      </trkpt>
      <trkpt lat="48.23294" lon="6.96257">
        <ele>402</ele>
        <time>2022-06-09T18:40:04Z</time>
      </trkpt>
      <trkpt lat="48.23545" lon="6.96301">
        <ele>393</ele>
        <time>2022-06-09T18:40:49Z</time>
      </trkpt>
      <trkpt lat="48.23649" lon="6.96211">
        <ele>389</ele>
        <time>2022-06-09T18:41:10Z</time>
      </trkpt>
      <trkpt lat="48.2373" lon="6.96333">
        <ele>389</ele>
        <time>2022-06-09T18:41:31Z</time>
      </trkpt>
      <trkpt lat="48.23872" lon="6.96477">
        <ele>387</ele>
        <time>2022-06-09T18:42:01Z</time>
      </trkpt>
      <trkpt lat="48.23957" lon="6.96537">
        <ele>386</ele>
        <time>2022-06-09T18:42:18Z</time>
      </trkpt>
      <trkpt lat="48.24445" lon="6.96821">
        <ele>381</ele>
        <time>2022-06-09T18:43:51Z</time>
      </trkpt>
      <trkpt lat="48.24735" lon="6.96827">
        <ele>386</ele>
        <time>2022-06-09T18:44:43Z</time>
      </trkpt>
      <trkpt lat="48.24872" lon="6.96911">
        <ele>384</ele>
        <time>2022-06-09T18:45:09Z</time>
      </trkpt>
      <trkpt lat="48.2502" lon="6.97022">
        <ele>378</ele>
        <time>2022-06-09T18:45:38Z</time>
      </trkpt>
      <trkpt lat="48.25252" lon="6.97287">
        <ele>376</ele>
        <time>2022-06-09T18:46:30Z</time>
      </trkpt>
      <trkpt lat="48.25421" lon="6.97368">
        <ele>372</ele>
        <time>2022-06-09T18:47:02Z</time>
      </trkpt>
      <trkpt lat="48.25497" lon="6.97439">
        <ele>370</ele>
        <time>2022-06-09T18:47:18Z</time>
      </trkpt>
      <trkpt lat="48.25417" lon="6.97653">
        <ele>375</ele>
        <time>2022-06-09T18:47:47Z</time>
      </trkpt>
      <trkpt lat="48.25475" lon="6.97771">
        <ele>374</ele>
        <time>2022-06-09T18:48:04Z</time>
      </trkpt>
      <trkpt lat="48.25499" lon="6.98106">
        <ele>387</ele>
        <time>2022-06-09T18:48:44Z</time>
      </trkpt>
      <trkpt lat="48.25518" lon="6.98284">
        <ele>389</ele>
        <time>2022-06-09T18:49:05Z</time>
      </trkpt>
      <trkpt lat="48.25553" lon="6.9836">
        <ele>391</ele>
        <time>2022-06-09T18:49:16Z</time>
      </trkpt>
      <trkpt lat="48.25501" lon="6.98486">
        <ele>395</ele>
        <time>2022-06-09T18:49:34Z</time>
      </trkpt>
      <trkpt lat="48.25383" lon="6.98954">
        <ele>400</ele>
        <time>2022-06-09T18:50:33Z</time>
      </trkpt>
      <trkpt lat="48.25393" lon="6.99115">
        <ele>400</ele>
        <time>2022-06-09T18:50:52Z</time>
      </trkpt>
      <trkpt lat="48.25364" lon="6.99182">
        <ele>402</ele>
        <time>2022-06-09T18:51:02Z</time>
      </trkpt>
      <trkpt lat="48.25674" lon="6.99587">
        <ele>379</ele>
        <time>2022-06-09T18:52:15Z</time>
      </trkpt>
      <trkpt lat="48.2574" lon="6.99452">
        <ele>373</ele>
        <time>2022-06-09T18:52:35Z</time>
      </trkpt>
      <trkpt lat="48.25837" lon="6.99569">
        <ele>367</ele>
        <time>2022-06-09T18:52:57Z</time>
      </trkpt>
      <trkpt lat="48.25995" lon="6.99689">
        <ele>364</ele>
        <time>2022-06-09T18:53:28Z</time>
      </trkpt>
      <trkpt lat="48.2612" lon="6.99705">
        <ele>363</ele>
        <time>2022-06-09T18:53:51Z</time>
      </trkpt>
      <trkpt lat="48.26255" lon="6.99668">
        <ele>355</ele>
        <time>2022-06-09T18:54:15Z</time>
      </trkpt>
      <trkpt lat="48.26372" lon="6.99721">
        <ele>356</ele>
        <time>2022-06-09T18:54:37Z</time>
      </trkpt>
      <trkpt lat="48.26407" lon="6.99584">
        <ele>355</ele>
        <time>2022-06-09T18:54:54Z</time>
      </trkpt>
      <trkpt lat="48.26611" lon="6.99617">
        <ele>355</ele>
        <time>2022-06-09T18:55:31Z</time>
      </trkpt>
      <trkpt lat="48.26962" lon="7.00118">
        <ele>355</ele>
        <time>2022-06-09T18:56:57Z</time>
      </trkpt>
      <trkpt lat="48.26989" lon="7.00267">
        <ele>356</ele>
        <time>2022-06-09T18:57:15Z</time>
      </trkpt>
      <trkpt lat="48.27316" lon="7.00965">
        <ele>366</ele>
        <time>2022-06-09T18:58:56Z</time>
      </trkpt>
      <trkpt lat="48.2742" lon="7.02126">
        <ele>372</ele>
        <time>2022-06-09T19:01:15Z</time>
      </trkpt>
      <trkpt lat="48.27428" lon="7.02652">
        <ele>375</ele>
        <time>2022-06-09T19:02:17Z</time>
      </trkpt>
      <trkpt lat="48.27644" lon="7.03318">
        <ele>380</ele>
        <time>2022-06-09T19:03:45Z</time>
      </trkpt>
      <trkpt lat="48.27693" lon="7.03543">
        <ele>378</ele>
        <time>2022-06-09T19:04:13Z</time>
      </trkpt>
      <trkpt lat="48.278" lon="7.0365">
        <ele>375</ele>
        <time>2022-06-09T19:04:36Z</time>
      </trkpt>
      <trkpt lat="48.27872" lon="7.03823">
        <ele>372</ele>
        <time>2022-06-09T19:05:00Z</time>
      </trkpt>
      <trkpt lat="48.27922" lon="7.04256">
        <ele>375</ele>
        <time>2022-06-09T19:05:52Z</time>
      </trkpt>
      <trkpt lat="48.2803" lon="7.04555">
        <ele>381</ele>
        <time>2022-06-09T19:06:33Z</time>
      </trkpt>
      <trkpt lat="48.28093" lon="7.04976">
        <ele>380</ele>
        <time>2022-06-09T19:07:24Z</time>
      </trkpt>
      <trkpt lat="48.28181" lon="7.05257">
        <ele>381</ele>
        <time>2022-06-09T19:08:00Z</time>
      </trkpt>
      <trkpt lat="48.28301" lon="7.0542">
        <ele>383</ele>
        <time>2022-06-09T19:08:29Z</time>
      </trkpt>
      <trkpt lat="48.28495" lon="7.05458">
        <ele>391</ele>
        <time>2022-06-09T19:09:04Z</time>
      </trkpt>
      <trkpt lat="48.28849" lon="7.05613">
        <ele>387</ele>
        <time>2022-06-09T19:10:10Z</time>
      </trkpt>
      <trkpt lat="48.28946" lon="7.05698">
        <ele>393</ele>
        <time>2022-06-09T19:10:30Z</time>
      </trkpt>
      <trkpt lat="48.29215" lon="7.05957">
        <ele>389</ele>
        <time>2022-06-09T19:11:26Z</time>
      </trkpt>
      <trkpt lat="48.29423" lon="7.06416">
        <ele>387</ele>
        <time>2022-06-09T19:12:32Z</time>
      </trkpt>
      <trkpt lat="48.29481" lon="7.0688">
        <ele>389</ele>
        <time>2022-06-09T19:13:28Z</time>
      </trkpt>
      <trkpt lat="48.29339" lon="7.07151">
        <ele>388</ele>
        <time>2022-06-09T19:14:09Z</time>
      </trkpt>
      <trkpt lat="48.29267" lon="7.07192">
        <ele>390</ele>
        <time>2022-06-09T19:14:23Z</time>
      </trkpt>
      <trkpt lat="48.29875" lon="7.07202">
        <ele>405</ele>
        <time>2022-06-09T19:16:11Z</time>
      </trkpt>
      <trkpt lat="48.30153" lon="7.07569">
        <ele>392</ele>
        <time>2022-06-09T19:17:17Z</time>
      </trkpt>
      <trkpt lat="48.30486" lon="7.07544">
        <ele>405</ele>
        <time>2022-06-09T19:18:16Z</time>
      </trkpt>
      <trkpt lat="48.30873" lon="7.07998">
        <ele>406</ele>
        <time>2022-06-09T19:19:43Z</time>
      </trkpt>
      <trkpt lat="48.30786" lon="7.08322">
        <ele>404</ele>
        <time>2022-06-09T19:20:25Z</time>
      </trkpt>
      <trkpt lat="48.31007" lon="7.08638">
        <ele>405</ele>
        <time>2022-06-09T19:21:19Z</time>
      </trkpt>
      <trkpt lat="48.30994" lon="7.08802">
        <ele>404</ele>
        <time>2022-06-09T19:21:38Z</time>
      </trkpt>
      <trkpt lat="48.31092" lon="7.09139">
        <ele>407</ele>
        <time>2022-06-09T19:22:22Z</time>
      </trkpt>
      <trkpt lat="48.31101" lon="7.09325">
        <ele>408</ele>
        <time>2022-06-09T19:22:44Z</time>
      </trkpt>
      <trkpt lat="48.3122" lon="7.09616">
        <ele>413</ele>
        <time>2022-06-09T19:23:24Z</time>
      </trkpt>
      <trkpt lat="48.31318" lon="7.10163">
        <ele>414</ele>
        <time>2022-06-09T19:24:31Z</time>
      </trkpt>
      <trkpt lat="48.3159" lon="7.10729">
        <ele>422</ele>
        <time>2022-06-09T19:25:54Z</time>
      </trkpt>
      <trkpt lat="48.31599" lon="7.10804">
        <ele>422</ele>
        <time>2022-06-09T19:26:03Z</time>
      </trkpt>
      <trkpt lat="48.31675" lon="7.10993">
        <ele>422</ele>
        <time>2022-06-09T19:26:29Z</time>
      </trkpt>
      <trkpt lat="48.31639" lon="7.11057">
        <ele>423</ele>
        <time>2022-06-09T19:26:39Z</time>
      </trkpt>
      <trkpt lat="48.31633" lon="7.11141">
        <ele>423</ele>
        <time>2022-06-09T19:26:49Z</time>
      </trkpt>
      <trkpt lat="48.31643" lon="7.1118">
        <ele>423</ele>
        <time>2022-06-09T19:26:54Z</time>
      </trkpt>
      <trkpt lat="48.31662" lon="7.1123">
        <ele>423</ele>
        <time>2022-06-09T19:27:01Z</time>
      </trkpt>
      <trkpt lat="48.31664" lon="7.11355">
        <ele>424</ele>
        <time>2022-06-09T19:27:16Z</time>
      </trkpt>
      <trkpt lat="48.31736" lon="7.11631">
        <ele>426</ele>
        <time>2022-06-09T19:27:51Z</time>
      </trkpt>
      <trkpt lat="48.31719" lon="7.11716">
        <ele>426</ele>
        <time>2022-06-09T19:28:01Z</time>
      </trkpt>
      <trkpt lat="48.3175" lon="7.11845">
        <ele>434</ele>
        <time>2022-06-09T19:28:18Z</time>
      </trkpt>
      <trkpt lat="48.31768" lon="7.11971">
        <ele>439</ele>
        <time>2022-06-09T19:28:33Z</time>
      </trkpt>
      <trkpt lat="48.31792" lon="7.12086">
        <ele>444</ele>
        <time>2022-06-09T19:28:47Z</time>
      </trkpt>
      <trkpt lat="48.31848" lon="7.122">
        <ele>442</ele>
        <time>2022-06-09T19:29:04Z</time>
      </trkpt>
      <trkpt lat="48.31855" lon="7.12271">
        <ele>442</ele>
        <time>2022-06-09T19:29:12Z</time>
      </trkpt>
      <trkpt lat="48.3184" lon="7.12337">
        <ele>439</ele>
        <time>2022-06-09T19:29:21Z</time>
      </trkpt>
      <trkpt lat="48.31748" lon="7.12468">
        <ele>444</ele>
        <time>2022-06-09T19:29:43Z</time>
      </trkpt>
      <trkpt lat="48.31648" lon="7.12649">
        <ele>447</ele>
        <time>2022-06-09T19:30:11Z</time>
      </trkpt>
      <trkpt lat="48.31526" lon="7.12989">
        <ele>453</ele>
        <time>2022-06-09T19:30:57Z</time>
      </trkpt>
      <trkpt lat="48.31514" lon="7.13138">
        <ele>451</ele>
        <time>2022-06-09T19:31:14Z</time>
      </trkpt>
      <trkpt lat="48.31519" lon="7.13223">
        <ele>450</ele>
        <time>2022-06-09T19:31:24Z</time>
      </trkpt>
      <trkpt lat="48.3153" lon="7.13311">
        <ele>448</ele>
        <time>2022-06-09T19:31:35Z</time>
      </trkpt>
      <trkpt lat="48.31505" lon="7.13548">
        <ele>450</ele>
        <time>2022-06-09T19:32:03Z</time>
      </trkpt>
      <trkpt lat="48.31491" lon="7.13608">
        <ele>450</ele>
        <time>2022-06-09T19:32:11Z</time>
      </trkpt>
      <trkpt lat="48.31443" lon="7.13708">
        <ele>451</ele>
        <time>2022-06-09T19:32:26Z</time>
      </trkpt>
      <trkpt lat="48.31421" lon="7.13807">
        <ele>452</ele>
        <time>2022-06-09T19:32:38Z</time>
      </trkpt>
      <trkpt lat="48.31419" lon="7.13959">
        <ele>453</ele>
        <time>2022-06-09T19:32:56Z</time>
      </trkpt>
      <trkpt lat="48.31457" lon="7.1421">
        <ele>459</ele>
        <time>2022-06-09T19:33:26Z</time>
      </trkpt>
      <trkpt lat="48.31506" lon="7.14353">
        <ele>460</ele>
        <time>2022-06-09T19:33:45Z</time>
      </trkpt>
      <trkpt lat="48.3156" lon="7.14439">
        <ele>460</ele>
        <time>2022-06-09T19:33:59Z</time>
      </trkpt>
      <trkpt lat="48.31574" lon="7.14509">
        <ele>461</ele>
        <time>2022-06-09T19:34:08Z</time>
      </trkpt>
      <trkpt lat="48.31563" lon="7.14581">
        <ele>464</ele>
        <time>2022-06-09T19:34:17Z</time>
      </trkpt>
      <trkpt lat="48.31555" lon="7.1467">
        <ele>471</ele>
        <time>2022-06-09T19:34:27Z</time>
      </trkpt>
      <trkpt lat="48.31595" lon="7.14776">
        <ele>469</ele>
        <time>2022-06-09T19:34:42Z</time>
      </trkpt>
      <trkpt lat="48.3166" lon="7.1509">
        <ele>469</ele>
        <time>2022-06-09T19:35:21Z</time>
      </trkpt>
      <trkpt lat="48.31662" lon="7.1513">
        <ele>470</ele>
        <time>2022-06-09T19:35:26Z</time>
      </trkpt>
      <trkpt lat="48.31615" lon="7.15523">
        <ele>476</ele>
        <time>2022-06-09T19:36:13Z</time>
      </trkpt>
      <trkpt lat="48.31553" lon="7.15622">
        <ele>484</ele>
        <time>2022-06-09T19:36:29Z</time>
      </trkpt>
      <trkpt lat="48.31481" lon="7.15783">
        <ele>496</ele>
        <time>2022-06-09T19:36:52Z</time>
      </trkpt>
      <trkpt lat="48.31463" lon="7.16033">
        <ele>498</ele>
        <time>2022-06-09T19:37:22Z</time>
      </trkpt>
      <trkpt lat="48.31446" lon="7.16122">
        <ele>502</ele>
        <time>2022-06-09T19:37:33Z</time>
      </trkpt>
      <trkpt lat="48.31457" lon="7.165">
        <ele>503</ele>
        <time>2022-06-09T19:38:17Z</time>
      </trkpt>
      <trkpt lat="48.31551" lon="7.16925">
        <ele>522</ele>
        <time>2022-06-09T19:39:10Z</time>
      </trkpt>
      <trkpt lat="48.31529" lon="7.17065">
        <ele>526</ele>
        <time>2022-06-09T19:39:27Z</time>
      </trkpt>
      <trkpt lat="48.31541" lon="7.17114">
        <ele>525</ele>
        <time>2022-06-09T19:39:34Z</time>
      </trkpt>
      <trkpt lat="48.3165" lon="7.17142">
        <ele>520</ele>
        <time>2022-06-09T19:39:53Z</time>
      </trkpt>
      <trkpt lat="48.31877" lon="7.17297">
        <ele>526</ele>
        <time>2022-06-09T19:40:38Z</time>
      </trkpt>
      <trkpt lat="48.32107" lon="7.17753">
        <ele>549</ele>
        <time>2022-06-09T19:41:45Z</time>
      </trkpt>
      <trkpt lat="48.32135" lon="7.17824">
        <ele>553</ele>
        <time>2022-06-09T19:41:55Z</time>
      </trkpt>
      <trkpt lat="48.32143" lon="7.17898">
        <ele>552</ele>
        <time>2022-06-09T19:42:04Z</time>
      </trkpt>
      <trkpt lat="48.32108" lon="7.18234">
        <ele>569</ele>
        <time>2022-06-09T19:42:44Z</time>
      </trkpt>
      <trkpt lat="48.32138" lon="7.18255">
        <ele>570</ele>
        <time>2022-06-09T19:42:50Z</time>
      </trkpt>
      <trkpt lat="48.3217" lon="7.18164">
        <ele>566</ele>
        <time>2022-06-09T19:43:02Z</time>
      </trkpt>
      <trkpt lat="48.32227" lon="7.17953">
        <ele>564</ele>
        <time>2022-06-09T19:43:29Z</time>
      </trkpt>
      <trkpt lat="48.32292" lon="7.17931">
        <ele>575</ele>
        <time>2022-06-09T19:43:41Z</time>
      </trkpt>
      <trkpt lat="48.32314" lon="7.17861">
        <ele>580</ele>
        <time>2022-06-09T19:43:50Z</time>
      </trkpt>
      <trkpt lat="48.32298" lon="7.17833">
        <ele>578</ele>
        <time>2022-06-09T19:43:55Z</time>
      </trkpt>
      <trkpt lat="48.32251" lon="7.17811">
        <ele>572</ele>
        <time>2022-06-09T19:44:03Z</time>
      </trkpt>
      <trkpt lat="48.32246" lon="7.1774">
        <ele>581</ele>
        <time>2022-06-09T19:44:12Z</time>
      </trkpt>
      <trkpt lat="48.32209" lon="7.17663">
        <ele>578</ele>
        <time>2022-06-09T19:44:23Z</time>
      </trkpt>
      <trkpt lat="48.32148" lon="7.17455">
        <ele>575</ele>
        <time>2022-06-09T19:44:50Z</time>
      </trkpt>
      <trkpt lat="48.32142" lon="7.17385">
        <ele>574</ele>
        <time>2022-06-09T19:44:58Z</time>
      </trkpt>
      <trkpt lat="48.32186" lon="7.17352">
        <ele>582</ele>
        <time>2022-06-09T19:45:07Z</time>
      </trkpt>
      <trkpt lat="48.32259" lon="7.17334">
        <ele>586</ele>
        <time>2022-06-09T19:45:20Z</time>
      </trkpt>
      <trkpt lat="48.32327" lon="7.17379">
        <ele>598</ele>
        <time>2022-06-09T19:45:33Z</time>
      </trkpt>
      <trkpt lat="48.32381" lon="7.17333">
        <ele>588</ele>
        <time>2022-06-09T19:45:44Z</time>
      </trkpt>
      <trkpt lat="48.32443" lon="7.17342">
        <ele>592</ele>
        <time>2022-06-09T19:45:55Z</time>
      </trkpt>
      <trkpt lat="48.32539" lon="7.17433">
        <ele>599</ele>
        <time>2022-06-09T19:46:16Z</time>
      </trkpt>
      <trkpt lat="48.32605" lon="7.17554">
        <ele>605</ele>
        <time>2022-06-09T19:46:34Z</time>
      </trkpt>
      <trkpt lat="48.32619" lon="7.17628">
        <ele>607</ele>
        <time>2022-06-09T19:46:43Z</time>
      </trkpt>
      <trkpt lat="48.32622" lon="7.17769">
        <ele>607</ele>
        <time>2022-06-09T19:47:00Z</time>
      </trkpt>
      <trkpt lat="48.32634" lon="7.17819">
        <ele>605</ele>
        <time>2022-06-09T19:47:06Z</time>
      </trkpt>
      <trkpt lat="48.32664" lon="7.17898">
        <ele>599</ele>
        <time>2022-06-09T19:47:17Z</time>
      </trkpt>
      <trkpt lat="48.32673" lon="7.18082">
        <ele>593</ele>
        <time>2022-06-09T19:47:39Z</time>
      </trkpt>
      <trkpt lat="48.32729" lon="7.18255">
        <ele>594</ele>
        <time>2022-06-09T19:48:02Z</time>
      </trkpt>
      <trkpt lat="48.32742" lon="7.18512">
        <ele>583</ele>
        <time>2022-06-09T19:48:32Z</time>
      </trkpt>
      <trkpt lat="48.32768" lon="7.18745">
        <ele>572</ele>
        <time>2022-06-09T19:49:00Z</time>
      </trkpt>
      <trkpt lat="48.328" lon="7.18944">
        <ele>568</ele>
        <time>2022-06-09T19:49:24Z</time>
      </trkpt>
      <trkpt lat="48.32806" lon="7.19094">
        <ele>555</ele>
        <time>2022-06-09T19:49:42Z</time>
      </trkpt>
      <trkpt lat="48.32867" lon="7.19275">
        <ele>546</ele>
        <time>2022-06-09T19:50:06Z</time>
      </trkpt>
      <trkpt lat="48.32924" lon="7.19473">
        <ele>538</ele>
        <time>2022-06-09T19:50:32Z</time>
      </trkpt>
      <trkpt lat="48.33024" lon="7.19624">
        <ele>514</ele>
        <time>2022-06-09T19:50:57Z</time>
      </trkpt>
      <trkpt lat="48.33249" lon="7.1928">
        <ele>522</ele>
        <time>2022-06-09T19:51:54Z</time>
      </trkpt>
      <trkpt lat="48.33272" lon="7.19313">
        <ele>514</ele>
        <time>2022-06-09T19:52:00Z</time>
      </trkpt>
      <trkpt lat="48.33252" lon="7.19454">
        <ele>499</ele>
        <time>2022-06-09T19:52:17Z</time>
      </trkpt>
      <trkpt lat="48.3327" lon="7.19533">
        <ele>504</ele>
        <time>2022-06-09T19:52:26Z</time>
      </trkpt>
      <trkpt lat="48.33263" lon="7.19579">
        <ele>503</ele>
        <time>2022-06-09T19:52:32Z</time>
      </trkpt>
      <trkpt lat="48.33176" lon="7.19714">
        <ele>490</ele>
        <time>2022-06-09T19:52:54Z</time>
      </trkpt>
      <trkpt lat="48.33153" lon="7.19781">
        <ele>492</ele>
        <time>2022-06-09T19:53:03Z</time>
      </trkpt>
      <trkpt lat="48.33065" lon="7.19896">
        <ele>481</ele>
        <time>2022-06-09T19:53:24Z</time>
      </trkpt>
      <trkpt lat="48.3307" lon="7.19973">
        <ele>481</ele>
        <time>2022-06-09T19:53:33Z</time>
      </trkpt>
      <trkpt lat="48.33055" lon="7.2014">
        <ele>480</ele>
        <time>2022-06-09T19:53:53Z</time>
      </trkpt>
      <trkpt lat="48.3307" lon="7.20387">
        <ele>459</ele>
        <time>2022-06-09T19:54:22Z</time>
      </trkpt>
      <trkpt lat="48.33057" lon="7.20507">
        <ele>455</ele>
        <time>2022-06-09T19:54:37Z</time>
      </trkpt>
      <trkpt lat="48.33014" lon="7.2059">
        <ele>451</ele>
        <time>2022-06-09T19:54:49Z</time>
      </trkpt>
      <trkpt lat="48.32836" lon="7.20704">
        <ele>437</ele>
        <time>2022-06-09T19:55:24Z</time>
      </trkpt>
      <trkpt lat="48.32743" lon="7.20732">
        <ele>432</ele>
        <time>2022-06-09T19:55:41Z</time>
      </trkpt>
      <trkpt lat="48.32671" lon="7.20734">
        <ele>433</ele>
        <time>2022-06-09T19:55:53Z</time>
      </trkpt>
      <trkpt lat="48.32636" lon="7.20771">
        <ele>433</ele>
        <time>2022-06-09T19:56:01Z</time>
      </trkpt>
      <trkpt lat="48.32611" lon="7.20845">
        <ele>429</ele>
        <time>2022-06-09T19:56:11Z</time>
      </trkpt>
      <trkpt lat="48.3259" lon="7.21008">
        <ele>416</ele>
        <time>2022-06-09T19:56:30Z</time>
      </trkpt>
      <trkpt lat="48.3259" lon="7.21131">
        <ele>411</ele>
        <time>2022-06-09T19:56:45Z</time>
      </trkpt>
      <trkpt lat="48.32613" lon="7.21319">
        <ele>410</ele>
        <time>2022-06-09T19:57:08Z</time>
      </trkpt>
      <trkpt lat="48.32677" lon="7.21444">
        <ele>407</ele>
        <time>2022-06-09T19:57:26Z</time>
      </trkpt>
      <trkpt lat="48.32693" lon="7.2166">
        <ele>402</ele>
        <time>2022-06-09T19:57:52Z</time>
      </trkpt>
      <trkpt lat="48.32719" lon="7.21787">
        <ele>409</ele>
        <time>2022-06-09T19:58:08Z</time>
      </trkpt>
      <trkpt lat="48.32722" lon="7.2192">
        <ele>409</ele>
        <time>2022-06-09T19:58:23Z</time>
      </trkpt>
      <trkpt lat="48.32705" lon="7.22111">
        <ele>403</ele>
        <time>2022-06-09T19:58:46Z</time>
      </trkpt>
      <trkpt lat="48.32699" lon="7.22262">
        <ele>402</ele>
        <time>2022-06-09T19:59:04Z</time>
      </trkpt>
      <trkpt lat="48.32604" lon="7.22401">
        <ele>388</ele>
        <time>2022-06-09T19:59:28Z</time>
      </trkpt>
      <trkpt lat="48.32512" lon="7.2261">
        <ele>383</ele>
        <time>2022-06-09T19:59:57Z</time>
      </trkpt>
      <trkpt lat="48.32413" lon="7.22786">
        <ele>382</ele>
        <time>2022-06-09T20:00:25Z</time>
      </trkpt>
      <trkpt lat="48.32394" lon="7.22873">
        <ele>387</ele>
        <time>2022-06-09T20:00:35Z</time>
      </trkpt>
      <trkpt lat="48.32389" lon="7.22984">
        <ele>390</ele>
        <time>2022-06-09T20:00:49Z</time>
      </trkpt>
      <trkpt lat="48.32349" lon="7.23063">
        <ele>383</ele>
        <time>2022-06-09T20:01:00Z</time>
      </trkpt>
      <trkpt lat="48.32314" lon="7.23177">
        <ele>383</ele>
        <time>2022-06-09T20:01:15Z</time>
      </trkpt>
      <trkpt lat="48.323" lon="7.23328">
        <ele>378</ele>
        <time>2022-06-09T20:01:33Z</time>
      </trkpt>
      <trkpt lat="48.32314" lon="7.2341">
        <ele>371</ele>
        <time>2022-06-09T20:01:43Z</time>
      </trkpt>
      <trkpt lat="48.32419" lon="7.23585">
        <ele>369</ele>
        <time>2022-06-09T20:02:11Z</time>
      </trkpt>
      <trkpt lat="48.32472" lon="7.23866">
        <ele>370</ele>
        <time>2022-06-09T20:02:46Z</time>
      </trkpt>
      <trkpt lat="48.32504" lon="7.24162">
        <ele>354</ele>
        <time>2022-06-09T20:03:21Z</time>
      </trkpt>
      <trkpt lat="48.32506" lon="7.24514">
        <ele>353</ele>
        <time>2022-06-09T20:04:03Z</time>
      </trkpt>
      <trkpt lat="48.3249" lon="7.24706">
        <ele>355</ele>
        <time>2022-06-09T20:04:26Z</time>
      </trkpt>
      <trkpt lat="48.32444" lon="7.24875">
        <ele>351</ele>
        <time>2022-06-09T20:04:47Z</time>
      </trkpt>
      <trkpt lat="48.32427" lon="7.25132">
        <ele>343</ele>
        <time>2022-06-09T20:05:18Z</time>
      </trkpt>
      <trkpt lat="48.32349" lon="7.25379">
        <ele>346</ele>
        <time>2022-06-09T20:05:50Z</time>
      </trkpt>
      <trkpt lat="48.32349" lon="7.25428">
        <ele>348</ele>
        <time>2022-06-09T20:05:56Z</time>
      </trkpt>
      <trkpt lat="48.32446" lon="7.25787">
        <ele>324</ele>
        <time>2022-06-09T20:06:42Z</time>
      </trkpt>
      <trkpt lat="48.3248" lon="7.25897">
        <ele>323</ele>
        <time>2022-06-09T20:06:56Z</time>
      </trkpt>
      <trkpt lat="48.3283" lon="7.26707">
        <ele>307</ele>
        <time>2022-06-09T20:08:50Z</time>
      </trkpt>
      <trkpt lat="48.32915" lon="7.26864">
        <ele>306</ele>
        <time>2022-06-09T20:09:14Z</time>
      </trkpt>
      <trkpt lat="48.32935" lon="7.26962">
        <ele>307</ele>
        <time>2022-06-09T20:09:27Z</time>
      </trkpt>
      <trkpt lat="48.32933" lon="7.27133">
        <ele>304</ele>
        <time>2022-06-09T20:09:47Z</time>
      </trkpt>
      <trkpt lat="48.33014" lon="7.27355">
        <ele>300</ele>
        <time>2022-06-09T20:10:17Z</time>
      </trkpt>
      <trkpt lat="48.33041" lon="7.27495">
        <ele>300</ele>
        <time>2022-06-09T20:10:34Z</time>
      </trkpt>
      <trkpt lat="48.3313" lon="7.27743">
        <ele>294</ele>
        <time>2022-06-09T20:11:07Z</time>
      </trkpt>
      <trkpt lat="48.33204" lon="7.28071">
        <ele>290</ele>
        <time>2022-06-09T20:11:48Z</time>
      </trkpt>
      <trkpt lat="48.333" lon="7.28311">
        <ele>285</ele>
        <time>2022-06-09T20:12:21Z</time>
      </trkpt>
      <trkpt lat="48.33384" lon="7.28404">
        <ele>283</ele>
        <time>2022-06-09T20:12:40Z</time>
      </trkpt>
      <trkpt lat="48.33448" lon="7.28443">
        <ele>282</ele>
        <time>2022-06-09T20:12:52Z</time>
      </trkpt>
      <trkpt lat="48.33485" lon="7.28437">
        <ele>282</ele>
        <time>2022-06-09T20:12:59Z</time>
      </trkpt>
      <trkpt lat="48.33555" lon="7.28538">
        <ele>280</ele>
        <time>2022-06-09T20:13:16Z</time>
      </trkpt>
      <trkpt lat="48.33656" lon="7.28641">
        <ele>282</ele>
        <time>2022-06-09T20:13:38Z</time>
      </trkpt>
      <trkpt lat="48.33782" lon="7.28871">
        <ele>288</ele>
        <time>2022-06-09T20:14:13Z</time>
      </trkpt>
      <trkpt lat="48.34058" lon="7.29395">
        <ele>287</ele>
        <time>2022-06-09T20:15:32Z</time>
      </trkpt>
      <trkpt lat="48.34146" lon="7.2971">
        <ele>275</ele>
        <time>2022-06-09T20:16:13Z</time>
      </trkpt>
      <trkpt lat="48.34132" lon="7.29768">
        <ele>271</ele>
        <time>2022-06-09T20:16:20Z</time>
      </trkpt>
      <trkpt lat="48.34074" lon="7.29858">
        <ele>268</ele>
        <time>2022-06-09T20:16:35Z</time>
      </trkpt>
      <trkpt lat="48.34074" lon="7.29926">
        <ele>267</ele>
        <time>2022-06-09T20:16:43Z</time>
      </trkpt>
      <trkpt lat="48.34162" lon="7.3007">
        <ele>267</ele>
        <time>2022-06-09T20:17:06Z</time>
      </trkpt>
      <trkpt lat="48.34178" lon="7.3017">
        <ele>267</ele>
        <time>2022-06-09T20:17:18Z</time>
      </trkpt>
      <trkpt lat="48.34205" lon="7.30224">
        <ele>266</ele>
        <time>2022-06-09T20:17:26Z</time>
      </trkpt>
      <trkpt lat="48.34261" lon="7.30291">
        <ele>265</ele>
        <time>2022-06-09T20:17:39Z</time>
      </trkpt>
      <trkpt lat="48.34276" lon="7.30374">
        <ele>264</ele>
        <time>2022-06-09T20:17:49Z</time>
      </trkpt>
      <trkpt lat="48.34322" lon="7.30412">
        <ele>265</ele>
        <time>2022-06-09T20:17:58Z</time>
      </trkpt>
      <trkpt lat="48.34418" lon="7.30506">
        <ele>268</ele>
        <time>2022-06-09T20:18:19Z</time>
      </trkpt>
      <trkpt lat="48.34252" lon="7.308">
        <ele>264</ele>
        <time>2022-06-09T20:19:04Z</time>
      </trkpt>
      <trkpt lat="48.3419" lon="7.30849">
        <ele>263</ele>
        <time>2022-06-09T20:19:17Z</time>
      </trkpt>
      <trkpt lat="48.3415" lon="7.30907">
        <ele>261</ele>
        <time>2022-06-09T20:19:27Z</time>
      </trkpt>
      <trkpt lat="48.34087" lon="7.31097">
        <ele>257</ele>
        <time>2022-06-09T20:19:52Z</time>
      </trkpt>
      <trkpt lat="48.34043" lon="7.3152">
        <ele>263</ele>
        <time>2022-06-09T20:20:42Z</time>
      </trkpt>
      <trkpt lat="48.33996" lon="7.31766">
        <ele>263</ele>
        <time>2022-06-09T20:21:13Z</time>
      </trkpt>
      <trkpt lat="48.33876" lon="7.3203">
        <ele>263</ele>
        <time>2022-06-09T20:21:51Z</time>
      </trkpt>
      <trkpt lat="48.33837" lon="7.32192">
        <ele>258</ele>
        <time>2022-06-09T20:22:11Z</time>
      </trkpt>
      <trkpt lat="48.3372" lon="7.32546">
        <ele>256</ele>
        <time>2022-06-09T20:22:58Z</time>
      </trkpt>
      <trkpt lat="48.33763" lon="7.32885">
        <ele>270</ele>
        <time>2022-06-09T20:23:38Z</time>
      </trkpt>
      <trkpt lat="48.33794" lon="7.33221">
        <ele>283</ele>
        <time>2022-06-09T20:24:19Z</time>
      </trkpt>
      <trkpt lat="48.33926" lon="7.33625">
        <ele>301</ele>
        <time>2022-06-09T20:25:12Z</time>
      </trkpt>
      <trkpt lat="48.33952" lon="7.33877">
        <ele>315</ele>
        <time>2022-06-09T20:25:42Z</time>
      </trkpt>
      <trkpt lat="48.33957" lon="7.34152">
        <ele>317</ele>
        <time>2022-06-09T20:26:15Z</time>
      </trkpt>
      <trkpt lat="48.33916" lon="7.34386">
        <ele>307</ele>
        <time>2022-06-09T20:26:43Z</time>
      </trkpt>
      <trkpt lat="48.33828" lon="7.34466">
        <ele>310</ele>
        <time>2022-06-09T20:27:01Z</time>
      </trkpt>
      <trkpt lat="48.33657" lon="7.34473">
        <ele>318</ele>
        <time>2022-06-09T20:27:32Z</time>
      </trkpt>
      <trkpt lat="48.33482" lon="7.34494">
        <ele>316</ele>
        <time>2022-06-09T20:28:03Z</time>
      </trkpt>
      <trkpt lat="48.33453" lon="7.34585">
        <ele>312</ele>
        <time>2022-06-09T20:28:15Z</time>
      </trkpt>
      <trkpt lat="48.33494" lon="7.35007">
        <ele>298</ele>
        <time>2022-06-09T20:29:06Z</time>
      </trkpt>
      <trkpt lat="48.33573" lon="7.35104">
        <ele>289</ele>
        <time>2022-06-09T20:29:24Z</time>
      </trkpt>
      <trkpt lat="48.33686" lon="7.35126">
        <ele>296</ele>
        <time>2022-06-09T20:29:44Z</time>
      </trkpt>
      <trkpt lat="48.33748" lon="7.35256">
        <ele>301</ele>
        <time>2022-06-09T20:30:03Z</time>
      </trkpt>
      <trkpt lat="48.33739" lon="7.35436">
        <ele>309</ele>
        <time>2022-06-09T20:30:24Z</time>
      </trkpt>
      <trkpt lat="48.3372" lon="7.35675">
        <ele>320</ele>
        <time>2022-06-09T20:30:53Z</time>
      </trkpt>
      <trkpt lat="48.33804" lon="7.36035">
        <ele>331</ele>
        <time>2022-06-09T20:31:38Z</time>
      </trkpt>
      <trkpt lat="48.33868" lon="7.36158">
        <ele>333</ele>
        <time>2022-06-09T20:31:56Z</time>
      </trkpt>
      <trkpt lat="48.33931" lon="7.36302">
        <ele>338</ele>
        <time>2022-06-09T20:32:17Z</time>
      </trkpt>
      <trkpt lat="48.34056" lon="7.3644">
        <ele>348</ele>
        <time>2022-06-09T20:32:44Z</time>
      </trkpt>
      <trkpt lat="48.34178" lon="7.36663">
        <ele>363</ele>
        <time>2022-06-09T20:33:18Z</time>
      </trkpt>
      <trkpt lat="48.34235" lon="7.36952">
        <ele>381</ele>
        <time>2022-06-09T20:33:54Z</time>
      </trkpt>
      <trkpt lat="48.34367" lon="7.37475">
        <ele>370</ele>
        <time>2022-06-09T20:35:00Z</time>
      </trkpt>
      <trkpt lat="48.34391" lon="7.37916">
        <ele>351</ele>
        <time>2022-06-09T20:35:53Z</time>
      </trkpt>
      <trkpt lat="48.34458" lon="7.38302">
        <ele>340</ele>
        <time>2022-06-09T20:36:40Z</time>
      </trkpt>
      <trkpt lat="48.34538" lon="7.3858">
        <ele>354</ele>
        <time>2022-06-09T20:37:16Z</time>
      </trkpt>
      <trkpt lat="48.34629" lon="7.38977">
        <ele>362</ele>
        <time>2022-06-09T20:38:05Z</time>
      </trkpt>
      <trkpt lat="48.34823" lon="7.39171">
        <ele>372</ele>
        <time>2022-06-09T20:38:47Z</time>
      </trkpt>
      <trkpt lat="48.34936" lon="7.39207">
        <ele>388</ele>
        <time>2022-06-09T20:39:07Z</time>
      </trkpt>
      <trkpt lat="48.35025" lon="7.39175">
        <ele>391</ele>
        <time>2022-06-09T20:39:23Z</time>
      </trkpt>
      <trkpt lat="48.35164" lon="7.39244">
        <ele>393</ele>
        <time>2022-06-09T20:39:50Z</time>
      </trkpt>
      <trkpt lat="48.35272" lon="7.39034">
        <ele>385</ele>
        <time>2022-06-09T20:40:21Z</time>
      </trkpt>
      <trkpt lat="48.35334" lon="7.38872">
        <ele>377</ele>
        <time>2022-06-09T20:40:43Z</time>
      </trkpt>
      <trkpt lat="48.3542" lon="7.38803">
        <ele>370</ele>
        <time>2022-06-09T20:41:00Z</time>
      </trkpt>
      <trkpt lat="48.35439" lon="7.38858">
        <ele>371</ele>
        <time>2022-06-09T20:41:08Z</time>
      </trkpt>
      <trkpt lat="48.35448" lon="7.38994">
        <ele>361</ele>
        <time>2022-06-09T20:41:24Z</time>
      </trkpt>
      <trkpt lat="48.35504" lon="7.39221">
        <ele>342</ele>
        <time>2022-06-09T20:41:52Z</time>
      </trkpt>
      <trkpt lat="48.35556" lon="7.39344">
        <ele>331</ele>
        <time>2022-06-09T20:42:10Z</time>
      </trkpt>
      <trkpt lat="48.35636" lon="7.39205">
        <ele>346</ele>
        <time>2022-06-09T20:42:31Z</time>
      </trkpt>
      <trkpt lat="48.357" lon="7.39407">
        <ele>329</ele>
        <time>2022-06-09T20:42:58Z</time>
      </trkpt>
      <trkpt lat="48.35698" lon="7.39506">
        <ele>322</ele>
        <time>2022-06-09T20:43:10Z</time>
      </trkpt>
      <trkpt lat="48.35815" lon="7.39921">
        <ele>303</ele>
        <time>2022-06-09T20:44:03Z</time>
      </trkpt>
      <trkpt lat="48.35921" lon="7.39986">
        <ele>302</ele>
        <time>2022-06-09T20:44:23Z</time>
      </trkpt>
      <trkpt lat="48.36022" lon="7.40423">
        <ele>283</ele>
        <time>2022-06-09T20:45:18Z</time>
      </trkpt>
      <trkpt lat="48.36102" lon="7.4069">
        <ele>279</ele>
        <time>2022-06-09T20:45:53Z</time>
      </trkpt>
      <trkpt lat="48.36207" lon="7.40876">
        <ele>263</ele>
        <time>2022-06-09T20:46:21Z</time>
      </trkpt>
      <trkpt lat="48.36316" lon="7.40937">
        <ele>259</ele>
        <time>2022-06-09T20:46:42Z</time>
      </trkpt>
      <trkpt lat="48.36448" lon="7.41258">
        <ele>256</ele>
        <time>2022-06-09T20:47:27Z</time>
      </trkpt>
      <trkpt lat="48.36611" lon="7.41417">
        <ele>263</ele>
        <time>2022-06-09T20:48:01Z</time>
      </trkpt>
      <trkpt lat="48.36628" lon="7.41673">
        <ele>263</ele>
        <time>2022-06-09T20:48:32Z</time>
      </trkpt>
      <trkpt lat="48.36637" lon="7.41864">
        <ele>263</ele>
        <time>2022-06-09T20:48:54Z</time>
      </trkpt>
      <trkpt lat="48.36756" lon="7.4216">
        <ele>264</ele>
        <time>2022-06-09T20:49:35Z</time>
      </trkpt>
      <trkpt lat="48.36794" lon="7.42378">
        <ele>268</ele>
        <time>2022-06-09T20:50:02Z</time>
      </trkpt>
      <trkpt lat="48.36894" lon="7.42613">
        <ele>275</ele>
        <time>2022-06-09T20:50:35Z</time>
      </trkpt>
      <trkpt lat="48.3738" lon="7.43492">
        <ele>253</ele>
        <time>2022-06-09T20:52:50Z</time>
      </trkpt>
      <trkpt lat="48.37572" lon="7.43844">
        <ele>241</ele>
        <time>2022-06-09T20:53:44Z</time>
      </trkpt>
      <trkpt lat="48.37832" lon="7.43988">
        <ele>224</ele>
        <time>2022-06-09T20:54:33Z</time>
      </trkpt>
      <trkpt lat="48.38132" lon="7.43983">
        <ele>215</ele>
        <time>2022-06-09T20:55:27Z</time>
      </trkpt>
      <trkpt lat="48.38352" lon="7.44154">
        <ele>211</ele>
        <time>2022-06-09T20:56:11Z</time>
      </trkpt>
      <trkpt lat="48.38416" lon="7.44295">
        <ele>207</ele>
        <time>2022-06-09T20:56:31Z</time>
      </trkpt>
      <trkpt lat="48.38597" lon="7.44313">
        <ele>201</ele>
        <time>2022-06-09T20:57:03Z</time>
      </trkpt>
      <trkpt lat="48.38777" lon="7.44457">
        <ele>198</ele>
        <time>2022-06-09T20:57:39Z</time>
      </trkpt>
      <trkpt lat="48.39098" lon="7.44627">
        <ele>200</ele>
        <time>2022-06-09T20:58:40Z</time>
      </trkpt>
      <trkpt lat="48.3922" lon="7.44851">
        <ele>200</ele>
        <time>2022-06-09T20:59:14Z</time>
      </trkpt>
      <trkpt lat="48.39244" lon="7.44966">
        <ele>199</ele>
        <time>2022-06-09T20:59:28Z</time>
      </trkpt>
      <trkpt lat="48.39501" lon="7.45166">
        <ele>201</ele>
        <time>2022-06-09T21:00:20Z</time>
      </trkpt>
      <trkpt lat="48.39594" lon="7.4515">
        <ele>202</ele>
        <time>2022-06-09T21:00:37Z</time>
      </trkpt>
      <trkpt lat="48.39692" lon="7.45094">
        <ele>205</ele>
        <time>2022-06-09T21:00:55Z</time>
      </trkpt>
      <trkpt lat="48.40074" lon="7.45558">
        <ele>203</ele>
        <time>2022-06-09T21:02:23Z</time>
      </trkpt>
      <trkpt lat="48.40528" lon="7.45592">
        <ele>203</ele>
        <time>2022-06-09T21:03:43Z</time>
      </trkpt>
      <trkpt lat="48.40839" lon="7.45347">
        <ele>197</ele>
        <time>2022-06-09T21:04:46Z</time>
      </trkpt>
      <trkpt lat="48.41048" lon="7.45544">
        <ele>195</ele>
        <time>2022-06-09T21:05:30Z</time>
      </trkpt>
      <trkpt lat="48.41097" lon="7.45311">
        <ele>210</ele>
        <time>2022-06-09T21:05:59Z</time>
      </trkpt>
      <trkpt lat="48.41073" lon="7.45213">
        <ele>214</ele>
        <time>2022-06-09T21:06:11Z</time>
      </trkpt>
      <trkpt lat="48.41634" lon="7.45284">
        <ele>227</ele>
        <time>2022-06-09T21:07:51Z</time>
      </trkpt>
      <trkpt lat="48.41873" lon="7.45144">
        <ele>235</ele>
        <time>2022-06-09T21:08:37Z</time>
      </trkpt>
      <trkpt lat="48.42083" lon="7.45083">
        <ele>259</ele>
        <time>2022-06-09T21:09:15Z</time>
      </trkpt>
      <trkpt lat="48.42269" lon="7.45055">
        <ele>269</ele>
        <time>2022-06-09T21:09:48Z</time>
      </trkpt>
      <trkpt lat="48.42333" lon="7.45062">
        <ele>273</ele>
        <time>2022-06-09T21:09:59Z</time>
      </trkpt>
      <trkpt lat="48.42576" lon="7.45033">
        <ele>281</ele>
        <time>2022-06-09T21:10:43Z</time>
      </trkpt>
      <trkpt lat="48.42681" lon="7.45082">
        <ele>284</ele>
        <time>2022-06-09T21:11:02Z</time>
      </trkpt>
      <trkpt lat="48.42882" lon="7.45269">
        <ele>271</ele>
        <time>2022-06-09T21:11:44Z</time>
      </trkpt>
      <trkpt lat="48.42964" lon="7.45298">
        <ele>262</ele>
        <time>2022-06-09T21:11:59Z</time>
      </trkpt>
      <trkpt lat="48.43068" lon="7.45046">
        <ele>256</ele>
        <time>2022-06-09T21:12:34Z</time>
      </trkpt>
      <trkpt lat="48.44185" lon="7.44372">
        <ele>233</ele>
        <time>2022-06-09T21:16:08Z</time>
      </trkpt>
      <trkpt lat="48.44321" lon="7.44585">
        <ele>226</ele>
        <time>2022-06-09T21:16:43Z</time>
      </trkpt>
      <trkpt lat="48.44691" lon="7.44423">
        <ele>247</ele>
        <time>2022-06-09T21:17:52Z</time>
      </trkpt>
      <trkpt lat="48.44895" lon="7.44414">
        <ele>251</ele>
        <time>2022-06-09T21:18:28Z</time>
      </trkpt>
      <trkpt lat="48.44925" lon="7.44795">
        <ele>242</ele>
        <time>2022-06-09T21:19:14Z</time>
      </trkpt>
      <trkpt lat="48.44938" lon="7.45462">
        <ele>217</ele>
        <time>2022-06-09T21:20:32Z</time>
      </trkpt>
      <trkpt lat="48.45005" lon="7.45816">
        <ele>219</ele>
        <time>2022-06-09T21:21:16Z</time>
      </trkpt>
      <trkpt lat="48.45116" lon="7.45843">
        <ele>227</ele>
        <time>2022-06-09T21:21:36Z</time>
      </trkpt>
      <trkpt lat="48.45196" lon="7.46025">
        <ele>228</ele>
        <time>2022-06-09T21:22:01Z</time>
      </trkpt>
      <trkpt lat="48.45248" lon="7.46375">
        <ele>224</ele>
        <time>2022-06-09T21:22:44Z</time>
      </trkpt>
      <trkpt lat="48.45299" lon="7.46433">
        <ele>225</ele>
        <time>2022-06-09T21:22:55Z</time>
      </trkpt>
      <trkpt lat="48.45342" lon="7.46565">
        <ele>223</ele>
        <time>2022-06-09T21:23:13Z</time>
      </trkpt>
      <trkpt lat="48.45345" lon="7.46839">
        <ele>210</ele>
        <time>2022-06-09T21:23:45Z</time>
      </trkpt>
      <trkpt lat="48.45551" lon="7.47">
        <ele>206</ele>
        <time>2022-06-09T21:24:26Z</time>
      </trkpt>
      <trkpt lat="48.45507" lon="7.47034">
        <ele>204</ele>
        <time>2022-06-09T21:24:35Z</time>
      </trkpt>
      <trkpt lat="48.45122" lon="7.48239">
        <ele>181</ele>
        <time>2022-06-09T21:27:13Z</time>
      </trkpt>
      <trkpt lat="48.45111" lon="7.48394">
        <ele>181</ele>
        <time>2022-06-09T21:27:31Z</time>
      </trkpt>
      <trkpt lat="48.45449" lon="7.48474">
        <ele>180</ele>
        <time>2022-06-09T21:28:32Z</time>
      </trkpt>
      <trkpt lat="48.45527" lon="7.4853">
        <ele>181</ele>
        <time>2022-06-09T21:28:47Z</time>
      </trkpt>
      <trkpt lat="48.4559" lon="7.48497">
        <ele>184</ele>
        <time>2022-06-09T21:28:59Z</time>
      </trkpt>
      <trkpt lat="48.45758" lon="7.48598">
        <ele>181</ele>
        <time>2022-06-09T21:29:31Z</time>
      </trkpt>
      <trkpt lat="48.45638" lon="7.49154">
        <ele>172</ele>
        <time>2022-06-09T21:30:40Z</time>
      </trkpt>
      <trkpt lat="48.45831" lon="7.49244">
        <ele>173</ele>
        <time>2022-06-09T21:31:16Z</time>
      </trkpt>
    </trkseg>
  </trk>
</gpx>